Time;durP1;ratioP1;P1;durP2;ratioP2;P2;SDS_P1;SDS_P2;PMS_P1;PMS_P2;Temp;Humidity;BMP_temperature;BMP_pressure;BME280_temperature;BME280_humidity;BME280_pressure;Samples;Min_cycle;Max_cycle;Signal;HPM_P1;HPM_P2
2022/04/25 00:01:20;;;;;;;;;;;;;;;20.72;36.18;101161.22;7282480;19;153446;-63
2022/04/25 00:03:47;;;;;;;;;;;;;;;20.73;36.38;101156.44;7281615;19;153997;-61
2022/04/25 00:06:13;;;;;;;;;;;;;;;20.74;36.43;101160.94;7280377;19;152315;-63
2022/04/25 00:08:40;;;;;;;;;;;;;;;20.73;36.11;101164.88;7284311;19;152851;-62
2022/04/25 00:11:09;;;;;;;;;;;;;;;20.72;36.12;101166.84;7282174;19;152909;-62
2022/04/25 00:13:41;;;;;;;;;;;;;;;20.71;36.22;101161.56;7282025;19;152077;-62
2022/04/25 00:16:07;;;;;;;;;;;;;;;20.73;36.45;101164.88;7283311;19;152651;-60
2022/04/25 00:18:34;;;;;;;;;;;;;;;20.72;36.71;101169.66;7281416;19;154401;-62
2022/04/25 00:21:01;;;;;;;;;;;;;;;20.71;36.81;101170.81;7288137;19;151929;-60
2022/04/25 00:23:28;;;;;;;;;;;;;;;20.70;36.54;101169.13;7277511;19;154556;-61
2022/04/25 00:25:55;;;;;;;;;;;;;;;20.71;36.53;101161.56;7282775;19;151985;-62
2022/04/25 00:28:21;;;;;;;;;;;;;;;20.70;36.78;101165.50;7282077;19;153715;-61
2022/04/25 00:30:48;;;;;;;;;;;;;;;20.69;36.74;101164.66;7279091;19;154164;-62
2022/04/25 00:33:15;;;;;;;;;;;;;;;20.69;36.72;101159.03;7281979;19;151625;-58
2022/04/25 00:35:42;;;;;;;;;;;;;;;20.69;36.74;101158.19;7278729;19;151994;-62
2022/04/25 00:38:09;;;;;;;;;;;;;;;20.70;36.86;101163.53;7280572;19;153261;-65
2022/04/25 00:40:36;;;;;;;;;;;;;;;20.67;37.07;101152.88;7281630;19;151919;-63
2022/04/25 00:43:04;;;;;;;;;;;;;;;20.69;38.13;101163.81;7287786;19;155174;-60
2022/04/25 00:45:31;;;;;;;;;;;;;;;20.67;37.59;101166.91;7281328;19;152109;-61
2022/04/25 00:47:58;;;;;;;;;;;;;;;20.68;37.48;101162.13;7280984;19;154033;-59
2022/04/25 00:50:25;;;;;;;;;;;;;;;20.65;37.54;101162.75;7280129;19;153941;-60
2022/04/25 00:52:52;;;;;;;;;;;;;;;20.64;37.88;101161.94;7281236;19;151793;-61
2022/04/25 00:55:18;;;;;;;;;;;;;;;20.63;37.77;101174.28;7278810;19;152736;-61
2022/04/25 00:57:45;;;;;;;;;;;;;;;20.63;38.32;101165.03;7280032;19;153904;-60
2022/04/25 01:00:13;;;;;;;;;;;;;;;20.62;38.47;101163.38;7279765;19;151812;-62
2022/04/25 01:02:40;;;;;;;;;;;;;;;20.62;38.55;101174.59;7280919;19;153309;-61
2022/04/25 01:05:08;;;;;;;;;;;;;;;20.61;38.63;101170.97;7287205;19;154365;-59
2022/04/25 01:07:36;;;;;;;;;;;;;;;20.62;38.27;101163.38;7281234;19;152682;-60
2022/04/25 01:10:06;;;;;;;;;;;;;;;20.58;38.78;101162.31;7280637;19;153736;-60
2022/04/25 01:12:33;;;;;;;;;;;;;;;20.59;38.65;101161.16;7277509;19;151704;-59
2022/04/25 01:15:01;;;;;;;;;;;;;;;20.55;38.83;101166.56;7278037;19;154339;-59
2022/04/25 01:17:27;;;;;;;;;;;;;;;20.56;38.97;101154.19;7278348;19;153971;-60
2022/04/25 01:19:54;;;;;;;;;;;;;;;20.54;38.68;101162.06;7281013;19;152146;-60
2022/04/25 01:22:40;;;;;;;;;;;;;;;20.54;38.74;101158.44;7278400;19;152427;-59
2022/04/25 01:28:09;;;;;;;;;;;;;;;20.51;39.22;101148.66;7278670;19;154508;-59
2022/04/25 01:30:36;;;;;;;;;;;;;;;20.50;39.22;101152.59;7278407;19;153038;-60
2022/04/25 01:33:02;;;;;;;;;;;;;;;20.49;38.98;101153.72;7279304;19;151591;-61
2022/04/25 01:35:29;;;;;;;;;;;;;;;20.49;39.23;101150.91;7281454;19;152646;-59
2022/04/25 01:37:56;;;;;;;;;;;;;;;20.47;39.42;101150.41;7284650;19;154015;-59
2022/04/25 01:40:25;;;;;;;;;;;;;;;20.47;39.55;101156.00;7286239;19;151640;-59
2022/04/25 01:42:51;;;;;;;;;;;;;;;20.47;39.51;101161.63;7285399;19;153848;-59
2022/04/25 01:45:20;;;;;;;;;;;;;;;20.45;39.37;101166.69;7282964;19;153933;-60
2022/04/25 01:47:47;;;;;;;;;;;;;;;20.45;39.43;101155.47;7284358;19;152132;-59
2022/04/25 01:50:13;;;;;;;;;;;;;;;20.42;39.49;101162.53;7294098;19;152660;-59
2022/04/25 01:52:40;;;;;;;;;;;;;;;20.42;39.89;101162.53;7286990;19;151952;-62
2022/04/25 01:55:07;;;;;;;;;;;;;;;20.40;39.72;101156.38;7285434;19;153687;-60
2022/04/25 01:57:34;;;;;;;;;;;;;;;20.38;39.80;101157.81;7284934;19;153370;-60
2022/04/25 02:00:00;;;;;;;;;;;;;;;20.38;39.99;101160.63;7287127;19;151822;-60
2022/04/25 02:02:27;;;;;;;;;;;;;;;20.36;39.90;101160.94;7286598;19;154321;-60
2022/04/25 02:04:55;;;;;;;;;;;;;;;20.35;40.10;101161.25;7285631;19;153399;-60
2022/04/25 02:07:22;;;;;;;;;;;;;;;20.32;40.36;101159.88;7286013;19;152047;-59
2022/04/25 02:09:49;;;;;;;;;;;;;;;20.34;39.98;101159.56;7293211;19;152747;-61
2022/04/25 02:12:15;;;;;;;;;;;;;;;20.33;40.22;101161.53;7286474;19;151986;-61
2022/04/25 02:14:43;;;;;;;;;;;;;;;20.30;40.11;101159.34;7283251;19;152553;-61
2022/04/25 02:17:10;;;;;;;;;;;;;;;20.31;40.56;101154.53;7254601;19;154141;-59
2022/04/25 02:19:40;;;;;;;;;;;;;;;20.31;40.26;101157.34;7285130;19;152239;-60
2022/04/25 02:22:07;;;;;;;;;;;;;;;20.29;40.40;101154.00;7285334;19;153395;-60
2022/04/25 02:24:34;;;;;;;;;;;;;;;20.27;40.20;101147.84;7281767;19;153944;-61
2022/04/25 02:27:04;;;;;;;;;;;;;;;20.27;40.60;101156.25;7284892;19;151958;-60
2022/04/25 02:29:32;;;;;;;;;;;;;;;20.26;40.51;101143.38;7281954;19;153936;-61
2022/04/25 02:31:59;;;;;;;;;;;;;;;20.24;40.57;101146.47;7293626;19;153554;-60
2022/04/25 02:34:31;;;;;;;;;;;;;;;20.23;40.47;101141.16;7284394;19;152974;-60
2022/04/25 02:37:03;;;;;;;;;;;;;;;20.22;40.48;101140.31;7284228;19;152375;-60
2022/04/25 02:39:29;;;;;;;;;;;;;;;20.23;40.43;101141.16;7281934;19;152309;-61
2022/04/25 02:41:56;;;;;;;;;;;;;;;20.22;40.62;101136.69;7285164;19;153329;-60
2022/04/25 02:44:26;;;;;;;;;;;;;;;20.20;40.63;101138.97;7283484;19;153505;-62
2022/04/25 02:46:57;;;;;;;;;;;;;;;20.20;40.83;101134.19;7282952;19;152162;-61
2022/04/25 02:49:24;;;;;;;;;;;;;;;20.19;41.03;101140.09;7283618;19;153315;-62
2022/04/25 02:51:51;;;;;;;;;;;;;;;20.19;40.88;101143.75;7283018;19;153258;-61
2022/04/25 02:54:17;;;;;;;;;;;;;;;20.17;40.73;101142.38;7294810;19;151820;-63
2022/04/25 02:56:44;;;;;;;;;;;;;;;20.16;40.82;101141.56;7278072;19;154344;-63
2022/04/25 02:59:10;;;;;;;;;;;;;;;20.16;41.02;101137.91;7282958;19;151571;-62
2022/04/25 03:01:37;;;;;;;;;;;;;;;20.15;40.91;101139.03;7283432;19;153688;-61
2022/04/25 03:04:04;;;;;;;;;;;;;;;20.14;40.92;101135.41;7283950;19;154202;-63
2022/04/25 03:06:31;;;;;;;;;;;;;;;20.13;41.14;101139.31;7281715;19;151920;-61
2022/04/25 03:08:58;;;;;;;;;;;;;;;20.15;41.11;101133.44;7285272;19;153356;-60
2022/04/25 03:11:25;;;;;;;;;;;;;;;20.15;41.12;101136.22;7282155;19;153817;-61
2022/04/25 03:13:52;;;;;;;;;;;;;;;20.12;41.25;101128.44;7283261;19;151977;-63
2022/04/25 03:16:20;;;;;;;;;;;;;;;20.11;41.61;101121.97;7260737;19;154527;-61
2022/04/25 03:18:48;;;;;;;;;;;;;;;20.08;41.54;101132.97;7281975;19;152597;-62
2022/04/25 03:21:14;;;;;;;;;;;;;;;20.07;41.33;101128.50;7284009;19;153340;-62
2022/04/25 03:23:41;;;;;;;;;;;;;;;20.06;41.72;101124.84;7282346;19;154176;-60
2022/04/25 03:26:08;;;;;;;;;;;;;;;20.05;41.81;101123.19;7283550;19;152266;-60
2022/04/25 03:28:34;;;;;;;;;;;;;;;20.05;41.74;101130.75;7280393;19;153540;-62
2022/04/25 03:31:04;;;;;;;;;;;;;;;20.03;41.90;101131.06;7279206;19;154759;-62
2022/04/25 03:33:31;;;;;;;;;;;;;;;20.04;41.56;101129.91;7282072;19;151828;-62
2022/04/25 03:35:58;;;;;;;;;;;;;;;20.03;41.53;101130.22;7282582;19;152512;-62
2022/04/25 03:38:25;;;;;;;;;;;;;;;20.03;41.63;101127.44;7287370;19;153228;-62
2022/04/25 03:40:52;;;;;;;;;;;;;;;20.04;42.21;101129.06;7284451;19;152631;-61
2022/04/25 03:43:19;;;;;;;;;;;;;;;20.02;41.90;101126.59;7282547;19;153552;-61
2022/04/25 03:45:45;;;;;;;;;;;;;;;20.01;41.73;101133.31;7283789;19;152297;-59
2022/04/25 03:48:12;;;;;;;;;;;;;;;19.99;41.90;101128.00;7283405;19;152519;-58
2022/04/25 03:50:39;;;;;;;;;;;;;;;19.99;41.93;101119.59;7281901;19;153413;-60
2022/04/25 03:53:07;;;;;;;;;;;;;;;19.98;42.06;101122.72;7282062;19;152001;-59
2022/04/25 03:58:19;;;;;;;;;;;;;;;19.95;42.25;101132.56;7281532;19;153268;-59
2022/04/25 04:00:46;;;;;;;;;;;;;;;19.95;42.15;101126.09;7290350;19;152309;-57
2022/04/25 04:03:14;;;;;;;;;;;;;;;19.93;42.25;101129.22;7280570;19;153890;-59
2022/04/25 04:05:42;;;;;;;;;;;;;;;19.94;42.29;101135.69;7282636;19;151968;-57
2022/04/25 04:08:09;;;;;;;;;;;;;;;19.93;42.31;101125.59;7283462;19;153516;-58
2022/04/25 04:10:36;;;;;;;;;;;;;;;19.92;42.00;101137.94;7281485;19;153337;-59
2022/04/25 04:13:04;;;;;;;;;;;;;;;19.91;42.16;101133.44;7282371;19;152033;-59
2022/04/25 04:15:31;;;;;;;;;;;;;;;19.91;41.95;101137.09;7260093;19;153587;-59
2022/04/25 04:17:58;;;;;;;;;;;;;;;19.94;41.94;101133.69;7273366;19;154314;-59
2022/04/25 04:20:24;;;;;;;;;;;;;;;19.97;42.36;101137.88;7290348;19;151920;-58
2022/04/25 04:22:51;;;;;;;;;;;;;;;20.02;42.58;101136.97;7280577;19;153430;-59
2022/04/25 04:25:18;;;;;;;;;;;;;;;20.06;42.56;101133.25;7282830;19;151565;-60
2022/04/25 04:27:45;;;;;;;;;;;;;;;20.11;42.96;101132.38;7282115;19;152705;-60
2022/04/25 04:30:13;;;;;;;;;;;;;;;20.18;42.38;101144.03;7276260;19;154210;-62
2022/04/25 04:32:41;;;;;;;;;;;;;;;20.22;42.62;101142.28;7281152;19;151712;-62
2022/04/25 04:35:09;;;;;;;;;;;;;;;20.29;42.39;101143.59;7283787;19;151842;-61
2022/04/25 04:37:37;;;;;;;;;;;;;;;20.35;43.00;101142.41;7280578;19;154012;-62
2022/04/25 04:42:50;;;;;;;;;;;;;;;20.50;42.79;101146.97;7288249;19;152602;-63
2022/04/25 04:45:17;;;;;;;;;;;;;;;20.57;42.53;101147.44;7282634;19;151878;-63
2022/04/25 04:47:44;;;;;;;;;;;;;;;20.65;42.82;101151.53;7276406;19;153440;-61
2022/04/25 04:50:14;;;;;;;;;;;;;;;20.72;42.56;101149.16;7280608;19;153950;-61
2022/04/25 04:52:42;;;;;;;;;;;;;;;20.78;42.29;101151.59;7279422;19;152457;-63
2022/04/25 04:55:09;;;;;;;;;;;;;;;20.85;42.30;101156.81;7280914;19;153149;-60
2022/04/25 04:57:37;;;;;;;;;;;;;;;20.91;42.17;101155.59;7277948;19;153729;-63
2022/04/25 05:00:05;;;;;;;;;;;;;;;20.99;41.59;101168.09;7281242;19;152383;-63
2022/04/25 05:02:32;;;;;;;;;;;;;;;21.06;41.72;101174.19;7279266;19;152768;-61
2022/04/25 05:04:59;;;;;;;;;;;;;;;21.12;41.86;101175.78;7287146;19;153581;-60
2022/04/25 05:07:26;;;;;;;;;;;;;;;21.17;41.53;101179.34;7280494;19;153375;-59
2022/04/25 05:09:52;;;;;;;;;;;;;;;21.24;41.62;101176.97;7282549;19;154070;-61
2022/04/25 05:12:27;;;;;;;;;;;;;;;21.31;41.68;101168.13;7287070;19;152388;-62
2022/04/25 05:14:54;;;;;;;;;;;;;;;21.38;41.48;101179.84;7284339;19;152594;-61
2022/04/25 05:17:21;;;;;;;;;;;;;;;21.45;41.94;101173.78;7256920;19;157851;-61
2022/04/25 05:19:48;;;;;;;;;;;;;;;21.50;41.79;101171.72;7285823;19;151831;-62
2022/04/25 05:22:15;;;;;;;;;;;;;;;21.56;41.36;101169.66;7286622;19;153047;-61
2022/04/25 05:24:41;;;;;;;;;;;;;;;21.62;41.16;101176.88;7286297;19;153861;-61
2022/04/25 05:27:08;;;;;;;;;;;;;;;21.67;40.84;101174.75;7293571;19;151609;-62
2022/04/25 05:29:35;;;;;;;;;;;;;;;21.72;41.21;101169.03;7284439;19;153245;-62
2022/04/25 05:32:02;;;;;;;;;;;;;;;21.79;41.11;101177.09;7282940;19;152288;-61
2022/04/25 05:34:37;;;;;;;;;;;;;;;21.85;40.86;101183.44;7284473;19;154102;-61
2022/04/25 05:37:03;;;;;;;;;;;;;;;21.89;40.72;101181.69;7282697;19;153799;-63
2022/04/25 05:39:30;;;;;;;;;;;;;;;21.95;40.98;101174.81;7286712;19;151776;-63
2022/04/25 05:42:01;;;;;;;;;;;;;;;22.00;40.85;101188.78;7286010;19;152789;-62
2022/04/25 05:44:33;;;;;;;;;;;;;;;22.04;40.47;101185.03;7285084;19;153574;-61
2022/04/25 05:47:00;;;;;;;;;;;;;;;22.09;40.33;101196.19;7284847;19;151920;-60
2022/04/25 05:52:12;;;;;;;;;;;;;;;22.19;40.17;101186.69;7285337;19;152148;-63
2022/04/25 05:54:46;;;;;;;;;;;;;;;22.25;40.33;101184.63;7283959;19;153419;-64
2022/04/25 05:57:13;;;;;;;;;;;;;;;22.30;39.89;101195.78;7283642;19;153373;-63
2022/04/25 05:59:40;;;;;;;;;;;;;;;22.34;40.17;101191.16;7285096;19;151608;-63
2022/04/25 06:02:07;;;;;;;;;;;;;;;22.38;39.90;101193.03;7287035;19;152644;-64
2022/04/25 06:04:34;;;;;;;;;;;;;;;22.42;39.98;101196.06;7284143;19;153177;-61
2022/04/25 06:07:04;;;;;;;;;;;;;;;22.47;40.09;101199.59;7285936;19;152227;-63
2022/04/25 06:09:30;;;;;;;;;;;;;;;22.52;39.73;101202.31;7284981;19;153466;-62
2022/04/25 06:11:58;;;;;;;;;;;;;;;22.57;40.32;101198.53;7291475;19;151694;-63
2022/04/25 06:14:25;;;;;;;;;;;;;;;22.59;39.70;101202.69;7283473;19;152687;-62
2022/04/25 06:17:00;;;;;;;;;;;;;;;22.65;39.89;101208.22;7284067;19;153226;-63
2022/04/25 06:19:27;;;;;;;;;;;;;;;22.71;40.45;101205.00;7284974;19;152812;-68
2022/04/25 06:21:54;;;;;;;;;;;;;;;22.78;40.10;101210.19;7285933;19;154079;-61
2022/04/25 06:24:22;;;;;;;;;;;;;;;22.82;39.46;101205.59;7283997;19;153506;-64
2022/04/25 06:26:55;;;;;;;;;;;;;;;22.85;39.26;101217.03;7285522;19;152071;-61
2022/04/25 06:29:22;;;;;;;;;;;;;;;22.90;39.24;101210.47;7284756;19;153683;-62
2022/04/25 06:31:49;;;;;;;;;;;;;;;22.94;38.97;101208.69;7291767;19;153210;-63
2022/04/25 06:34:15;;;;;;;;;;;;;;;22.98;38.93;101212.53;7285231;19;153549;-60
2022/04/25 06:36:42;;;;;;;;;;;;;;;23.00;38.94;101219.50;7282136;19;154049;-60
2022/04/25 06:39:09;;;;;;;;;;;;;;;23.04;38.94;101216.88;7284741;19;151766;-60
2022/04/25 06:41:35;;;;;;;;;;;;;;;23.07;39.11;101221.06;7286136;19;153205;-60
2022/04/25 06:44:02;;;;;;;;;;;;;;;23.06;38.83;101225.88;7283730;19;154131;-61
2022/04/25 06:46:29;;;;;;;;;;;;;;;23.09;38.85;101222.41;7284030;19;152667;-58
2022/04/25 06:51:41;;;;;;;;;;;;;;;23.11;39.12;101230.53;7282994;19;153282;-61
2022/04/25 06:54:08;;;;;;;;;;;;;;;23.11;39.08;101231.38;7292325;19;152252;-61
2022/04/25 06:56:35;;;;;;;;;;;;;;;23.12;39.01;101235.03;7281631;19;154029;-60
2022/04/25 06:59:02;;;;;;;;;;;;;;;23.10;38.30;101231.69;7284991;19;152288;-65
2022/04/25 07:01:29;;;;;;;;;;;;;;;23.05;38.18;101241.94;7284230;19;152986;-65
2022/04/25 07:03:56;;;;;;;;;;;;;;;22.38;35.43;101234.44;7283591;19;154269;-62
2022/04/25 07:06:22;;;;;;;;;;;;;;;22.14;34.73;101235.47;7285077;19;151595;-68
2022/04/25 07:08:49;;;;;;;;;;;;;;;22.00;34.26;101243.06;7283946;19;152848;-65
2022/04/25 07:11:16;;;;;;;;;;;;;;;21.70;34.72;101252.06;7283645;19;154227;-67
2022/04/25 07:13:44;;;;;;;;;;;;;;;21.51;35.03;101248.47;7283511;19;151919;-65
2022/04/25 07:16:12;;;;;;;;;;;;;;;21.49;34.33;101245.97;7288340;19;154100;-63
2022/04/25 07:18:38;;;;;;;;;;;;;;;21.49;34.63;101260.00;7281778;19;151909;-65
2022/04/25 07:28:48;;;;;;;;;;;;;;;21.26;34.82;101246.91;7281918;19;152517;-65
2022/04/25 07:29:24;;;;;;;;;;;;;;;21.09;35.04;101250.25;7284432;19;153087;-64
2022/04/25 07:31:51;;;;;;;;;;;;;;;21.33;35.46;101263.41;7280948;19;154557;-68
2022/04/25 07:34:18;;;;;;;;;;;;;;;21.38;35.80;101258.53;7283710;19;151996;-65
2022/04/25 07:36:53;;;;;;;;;;;;;;;21.51;36.51;101257.75;7281869;19;152343;-67
2022/04/25 07:39:20;;;;;;;;;;;;;;;21.57;36.45;101269.75;7290238;19;153999;-64
2022/04/25 07:41:47;;;;;;;;;;;;;;;21.61;36.58;101265.19;7283776;19;152539;-63
2022/04/25 07:44:14;;;;;;;;;;;;;;;21.64;36.73;101265.38;7280868;19;153307;-64
2022/04/25 07:46:42;;;;;;;;;;;;;;;21.69;36.92;101267.28;7282752;19;151960;-65
2022/04/25 07:49:09;;;;;;;;;;;;;;;21.73;36.81;101268.31;7283603;19;153425;-65
2022/04/25 07:51:36;;;;;;;;;;;;;;;21.76;37.03;101267.69;7280366;19;154332;-63
2022/04/25 07:54:06;;;;;;;;;;;;;;;21.81;36.95;101267.59;7281610;19;151950;-62
2022/04/25 07:56:33;;;;;;;;;;;;;;;21.83;37.18;101272.94;7281078;19;152756;-63
2022/04/25 07:59:02;;;;;;;;;;;;;;;21.85;36.99;101273.47;7282122;19;153783;-63
2022/04/25 08:01:29;;;;;;;;;;;;;;;21.88;37.29;101270.88;7288883;19;151622;-63
2022/04/25 08:03:56;;;;;;;;;;;;;;;21.92;37.13;101276.69;7281724;19;153130;-64
2022/04/25 08:06:23;;;;;;;;;;;;;;;21.95;37.08;101281.72;7282350;19;151684;-61
2022/04/25 08:08:51;;;;;;;;;;;;;;;21.96;36.95;101280.59;7282820;19;151848;-65
2022/04/25 08:11:18;;;;;;;;;;;;;;;21.98;37.32;101283.94;7281809;19;152002;-63
2022/04/25 08:19:22;;;;;;;;;;;;;;;21.99;36.80;101283.59;7281852;19;153444;-62
2022/04/25 08:21:49;;;;;;;;;;;;;;;21.98;37.33;101281.97;7290301;19;152045;-64
2022/04/25 08:24:17;;;;;;;;;;;;;;;22.00;37.15;101282.47;7281116;19;154002;-61
2022/04/25 08:26:43;;;;;;;;;;;;;;;22.00;37.36;101290.91;7281785;19;151910;-60
2022/04/25 08:29:10;;;;;;;;;;;;;;;22.01;36.93;101286.97;7281976;19;153347;-62
2022/04/25 08:31:37;;;;;;;;;;;;;;;21.98;37.14;101298.00;7281106;19;152108;-63
2022/04/25 08:34:05;;;;;;;;;;;;;;;21.97;37.35;101297.16;7282526;19;151885;-62
2022/04/25 08:36:32;;;;;;;;;;;;;;;21.97;36.93;101297.16;7281193;19;153510;-63
2022/04/25 08:39:00;;;;;;;;;;;;;;;21.97;37.13;101296.34;7280237;19;153924;-62
2022/04/25 08:41:30;;;;;;;;;;;;;;;21.93;36.87;101298.94;7281483;19;151969;-64
2022/04/25 08:43:58;;;;;;;;;;;;;;;21.92;36.95;101302.03;7285630;19;153357;-63
2022/04/25 08:46:28;;;;;;;;;;;;;;;21.89;37.04;101299.84;7280675;19;153179;-62
2022/04/25 08:48:57;;;;;;;;;;;;;;;21.88;37.40;101299.00;7281551;19;152576;-65
2022/04/25 08:51:25;;;;;;;;;;;;;;;21.87;37.06;101305.75;7280697;19;154794;-61
2022/04/25 08:53:53;;;;;;;;;;;;;;;21.83;37.46;101307.53;7281708;19;151832;-64
2022/04/25 08:56:23;;;;;;;;;;;;;;;21.83;37.46;101307.53;7281060;19;153594;-63
2022/04/25 08:58:50;;;;;;;;;;;;;;;21.79;37.66;101312.09;7275251;19;153746;-61
2022/04/25 09:01:17;;;;;;;;;;;;;;;21.78;37.53;101304.78;7281165;19;152019;-61
2022/04/25 09:03:43;;;;;;;;;;;;;;;21.76;37.39;101304.25;7280192;19;152802;-61
2022/04/25 09:06:10;;;;;;;;;;;;;;;21.73;37.21;101304.88;7286796;19;154205;-62
2022/04/25 09:08:38;;;;;;;;;;;;;;;21.73;37.39;101304.88;7279968;19;154772;-61
2022/04/25 09:13:51;;;;;;;;;;;;;;;21.67;37.26;101306.94;7279044;19;152179;-63
2022/04/25 09:16:18;;;;;;;;;;;;;;;21.67;37.24;101318.19;7281281;19;152701;-61
2022/04/25 09:18:44;;;;;;;;;;;;;;;21.65;37.67;101323.31;7275684;19;154461;-62
2022/04/25 09:21:14;;;;;;;;;;;;;;;21.62;37.54;101321.09;7280734;19;151781;-63
2022/04/25 09:23:41;;;;;;;;;;;;;;;21.60;37.75;101323.38;7279751;19;153332;-63
2022/04/25 09:26:15;;;;;;;;;;;;;;;21.58;37.41;101330.44;7279825;19;154513;-62
2022/04/25 09:28:52;;;;;;;;;;;;;;;21.56;37.61;101335.56;7284385;19;151725;-61
2022/04/25 09:31:20;;;;;;;;;;;;;;;21.53;37.76;101333.38;7280406;19;153616;-64
2022/04/25 09:33:47;;;;;;;;;;;;;;;21.52;37.59;101334.50;7280004;19;152031;-62
2022/04/25 09:36:14;;;;;;;;;;;;;;;21.49;37.86;101341.56;7280490;19;152965;-63
2022/04/25 09:38:41;;;;;;;;;;;;;;;21.47;37.86;101338.22;7273836;19;153892;-63
2022/04/25 09:41:09;;;;;;;;;;;;;;;21.46;37.90;101341.34;7278914;19;152035;-63
2022/04/25 09:43:38;;;;;;;;;;;;;;;21.45;37.59;101346.13;7279167;19;152758;-64
2022/04/25 09:46:09;;;;;;;;;;;;;;;21.44;37.81;101344.44;7277906;19;153454;-63
2022/04/25 09:48:37;;;;;;;;;;;;;;;21.45;37.57;101345.28;7279495;19;151928;-61
2022/04/25 09:51:05;;;;;;;;;;;;;;;21.48;37.94;101347.50;7282933;19;152705;-61
2022/04/25 09:53:42;;;;;;;;;;;;;;;21.50;37.78;101346.03;7277900;19;152051;-64
2022/04/25 09:56:09;;;;;;;;;;;;;;;21.54;37.68;101347.09;7281699;19;152670;-62
2022/04/25 09:58:40;;;;;;;;;;;;;;;21.61;37.75;101349.53;7284113;19;153899;-61
2022/04/25 10:01:11;;;;;;;;;;;;;;;21.67;37.55;101351.09;7284100;19;152133;-65
2022/04/25 10:03:39;;;;;;;;;;;;;;;21.70;37.54;101345.72;7284838;19;154057;-62
2022/04/25 10:06:06;;;;;;;;;;;;;;;21.78;37.42;101346.16;7284705;19;153011;-64
2022/04/25 10:08:37;;;;;;;;;;;;;;;21.86;37.33;101343.47;7286112;19;152547;-63
2022/04/25 10:11:05;;;;;;;;;;;;;;;21.95;37.77;101343.63;7285882;19;152866;-63
2022/04/25 10:13:33;;;;;;;;;;;;;;;22.06;37.36;101351.59;7289459;19;154638;-63
2022/04/25 10:16:00;;;;;;;;;;;;;;;22.14;37.20;101350.03;7286358;19;152720;-63
2022/04/25 10:18:30;;;;;;;;;;;;;;;22.24;37.13;101340.56;7282176;19;154084;-63
2022/04/25 10:20:57;;;;;;;;;;;;;;;22.31;37.29;101339.00;7285297;19;152115;-63
2022/04/25 10:23:25;;;;;;;;;;;;;;;22.35;37.37;101351.31;7284463;19;153350;-62
2022/04/25 10:25:54;;;;;;;;;;;;;;;22.38;36.89;101347.91;7283764;19;154588;-62
2022/04/25 10:28:29;;;;;;;;;;;;;;;22.36;36.78;101347.34;7284383;19;152209;-63
2022/04/25 10:31:07;;;;;;;;;;;;;;;22.37;36.79;101353.81;7285350;19;153437;-62
2022/04/25 10:33:48;;;;;;;;;;;;;;;22.36;37.08;101353.00;7289263;19;153641;-61
2022/04/25 10:36:33;;;;;;;;;;;;;;;22.35;37.08;101358.94;7285590;19;153174;-63
2022/04/25 10:39:13;;;;;;;;;;;;;;;22.35;36.99;101356.94;7280451;19;154185;-61
2022/04/25 10:44:31;;;;;;;;;;;;;;;22.33;36.90;101358.41;7282497;19;153327;-64
2022/04/25 10:47:05;;;;;;;;;;;;;;;22.31;36.90;101366.31;7281857;19;156266;-62
2022/04/25 10:49:34;;;;;;;;;;;;;;;22.30;36.92;101367.50;7285284;19;151515;-62
2022/04/25 10:52:02;;;;;;;;;;;;;;;22.28;37.37;101370.59;7284135;19;155045;-63
2022/04/25 10:54:48;;;;;;;;;;;;;;;22.26;37.20;101363.63;7283398;19;153426;-63
2022/04/25 10:57:15;;;;;;;;;;;;;;;22.26;37.07;101355.19;7291687;19;152133;-65
2022/04/25 10:59:42;;;;;;;;;;;;;;;22.28;37.46;101364.97;7279731;19;153925;-66
2022/04/25 11:02:26;;;;;;;;;;;;;;;22.27;37.29;101368.94;7284884;19;151775;-64
2022/04/25 11:05:11;;;;;;;;;;;;;;;22.34;37.23;101368.53;7284692;19;153225;-60
2022/04/25 11:07:40;;;;;;;;;;;;;;;22.29;37.18;101366.66;7280374;19;153322;-64
2022/04/25 11:10:07;;;;;;;;;;;;;;;22.28;37.31;101369.75;7281685;19;151646;-65
2022/04/25 11:12:53;;;;;;;;;;;;;;;22.29;37.38;101365.81;7283467;19;153085;-62
2022/04/25 11:15:38;;;;;;;;;;;;;;;22.27;37.62;101371.75;7280507;19;153947;-63
2022/04/25 11:21:04;;;;;;;;;;;;;;;22.28;37.52;101370.59;7290051;19;152768;-62
2022/04/25 11:23:32;;;;;;;;;;;;;;;22.28;37.26;101367.78;7283946;19;151963;-61
2022/04/25 11:26:05;;;;;;;;;;;;;;;22.30;37.35;101362.69;7284113;19;153542;-64
2022/04/25 11:28:34;;;;;;;;;;;;;;;22.36;37.46;101357.78;7282339;19;152979;-61
2022/04/25 11:31:13;;;;;;;;;;;;;;;22.33;37.26;101352.78;7282657;19;151608;-62
2022/04/25 11:33:41;;;;;;;;;;;;;;;22.35;37.03;101350.50;7283579;19;152902;-62
2022/04/25 11:36:08;;;;;;;;;;;;;;;22.36;37.19;101350.16;7280631;19;152380;-61
2022/04/25 11:41:29;;;;;;;;;;;;;;;22.36;36.77;101338.91;7282715;19;152571;-63
2022/04/25 11:43:57;;;;;;;;;;;;;;;22.29;37.07;101346.09;7288990;19;153267;-61
2022/04/25 11:46:28;;;;;;;;;;;;;;;22.25;37.00;101339.44;7283568;19;152638;-66
2022/04/25 11:48:55;;;;;;;;;;;;;;;22.25;37.21;101336.63;7280670;19;154075;-60
2022/04/25 11:51:31;;;;;;;;;;;;;;;22.29;37.12;101340.47;7283196;19;152160;-64
2022/04/25 11:54:01;;;;;;;;;;;;;;;22.31;36.88;101336.19;7281030;19;152753;-65
2022/04/25 11:56:28;;;;;;;;;;;;;;;22.27;36.97;101328.69;7281323;19;152822;-65
2022/04/25 11:58:56;;;;;;;;;;;;;;;22.20;36.90;101323.47;7278792;19;151614;-63
2022/04/25 12:01:32;;;;;;;;;;;;;;;22.17;37.21;101326.88;7281831;19;153340;-63
2022/04/25 12:04:18;;;;;;;;;;;;;;;22.14;37.12;101334.00;7281342;19;153180;-61
2022/04/25 12:06:52;;;;;;;;;;;;;;;22.12;37.09;101338.28;7287432;19;151992;-64
2022/04/25 12:17:49;;;;;;;;;;;;;;;22.12;37.24;101341.09;7280248;19;154821;-63
2022/04/25 12:20:17;;;;;;;;;;;;;;;22.12;37.31;101327.81;7277212;19;151943;-65
2022/04/25 12:22:52;;;;;;;;;;;;;;;22.13;37.08;101334.28;7279191;19;152195;-62
2022/04/25 12:25:20;;;;;;;;;;;;;;;22.13;37.21;101335.13;7278617;19;154569;-63
2022/04/25 12:27:59;;;;;;;;;;;;;;;22.10;37.50;101335.75;7278904;19;152045;-64
2022/04/25 12:30:28;;;;;;;;;;;;;;;22.11;37.39;101336.59;7286543;19;153137;-61
2022/04/25 12:33:07;;;;;;;;;;;;;;;22.10;37.60;101332.09;7280837;19;151883;-64
2022/04/25 12:35:35;;;;;;;;;;;;;;;22.11;37.39;101331.81;7282370;19;152959;-65
2022/04/25 12:38:03;;;;;;;;;;;;;;;22.19;37.05;101333.06;7279863;19;153991;-61
2022/04/25 12:40:31;;;;;;;;;;;;;;;22.28;37.01;101333.16;7281496;19;151837;-63
2022/04/25 12:42:57;;;;;;;;;;;;;;;22.28;36.94;101339.63;7279281;19;153902;-64
2022/04/25 12:45:24;;;;;;;;;;;;;;;22.31;37.19;101335.34;7257027;19;154948;-65
2022/04/25 12:47:57;;;;;;;;;;;;;;;22.32;37.17;101343.50;7267274;19;152976;-62
2022/04/25 12:50:42;;;;;;;;;;;;;;;22.37;37.26;101340.59;7285896;19;153578;-62
2022/04/25 12:53:11;;;;;;;;;;;;;;;22.38;37.07;101333.81;7281222;19;153738;-63
2022/04/25 12:55:45;;;;;;;;;;;;;;;22.40;36.85;101327.84;7280562;19;153728;-63
2022/04/25 12:58:12;;;;;;;;;;;;;;;22.41;37.19;101321.09;7279747;19;154452;-64
2022/04/25 13:00:42;;;;;;;;;;;;;;;22.43;36.76;101327.25;7277017;19;151771;-64
2022/04/25 13:03:30;;;;;;;;;;;;;;;22.40;37.07;101334.31;7278970;19;154769;-63
2022/04/25 13:05:57;;;;;;;;;;;;;;;22.41;37.27;101335.16;7276649;19;154528;-61
2022/04/25 13:08:23;;;;;;;;;;;;;;;22.41;36.83;101316.28;7278870;19;152151;-65
2022/04/25 13:10:51;;;;;;;;;;;;;;;22.40;37.07;101331.50;7277956;19;153675;-63
2022/04/25 13:13:17;;;;;;;;;;;;;;;22.41;36.71;101324.75;7285422;19;154126;-61
2022/04/25 13:15:47;;;;;;;;;;;;;;;22.41;37.14;101326.72;7278971;19;152920;-62
2022/04/25 13:18:14;;;;;;;;;;;;;;;22.42;36.88;101326.41;7279174;19;153009;-61
2022/04/25 13:20:41;;;;;;;;;;;;;;;22.44;36.83;101326.91;7278091;19;151774;-63